createdAt,value
2018-12-31T00:00:41.780Z,2.40
2018-12-31T00:03:10.861Z,2.40
2018-12-31T00:05:40.300Z,2.50
2018-12-31T00:08:09.511Z,2.50
2018-12-31T00:10:38.636Z,2.50
2018-12-31T00:13:07.777Z,2.50
2018-12-31T00:15:36.901Z,2.50
2018-12-31T00:18:06.050Z,2.50
2018-12-31T00:20:35.274Z,2.50
2018-12-31T00:23:04.408Z,2.50
2018-12-31T00:25:33.636Z,2.50
2018-12-31T00:28:03.123Z,2.50
2018-12-31T00:30:32.335Z,2.50
2018-12-31T00:33:01.519Z,2.50
2018-12-31T00:35:30.719Z,2.50
2018-12-31T00:37:59.852Z,2.50
2018-12-31T00:40:28.988Z,2.50
2018-12-31T00:42:59.140Z,2.50
2018-12-31T00:45:28.507Z,2.50
2018-12-31T00:47:57.636Z,2.50
2018-12-31T00:50:27.013Z,2.50
2018-12-31T00:52:56.394Z,2.50
2018-12-31T00:55:25.638Z,2.50
2018-12-31T00:57:54.747Z,2.50
2018-12-31T01:00:23.897Z,2.50
2018-12-31T01:02:53.169Z,2.50
2018-12-31T01:05:22.390Z,2.50
2018-12-31T01:07:51.644Z,2.40
2018-12-31T01:10:20.842Z,2.50
2018-12-31T01:12:50.138Z,2.50
2018-12-31T01:15:19.294Z,2.30
2018-12-31T01:17:48.546Z,2.40
2018-12-31T01:20:17.846Z,2.40
2018-12-31T01:22:47.044Z,2.50
2018-12-31T01:25:16.242Z,2.40
2018-12-31T01:27:45.425Z,2.40
2018-12-31T01:30:14.584Z,2.50
2018-12-31T01:32:43.812Z,2.50
2018-12-31T01:35:12.949Z,2.60
2018-12-31T01:37:42.161Z,2.60
2018-12-31T01:40:11.292Z,2.50
2018-12-31T01:42:40.414Z,2.50
2018-12-31T01:45:09.652Z,2.60
2018-12-31T01:47:38.845Z,2.60
2018-12-31T01:50:07.980Z,2.60
2018-12-31T01:52:37.217Z,2.50
2018-12-31T01:55:06.449Z,2.50
2018-12-31T01:57:35.880Z,2.60
2018-12-31T02:00:06.863Z,2.50
2018-12-31T02:02:36.173Z,2.60
2018-12-31T02:05:06.367Z,2.50
2018-12-31T02:07:35.779Z,2.50
2018-12-31T02:10:05.295Z,2.50
2018-12-31T02:12:35.916Z,2.40
2018-12-31T02:15:05.752Z,2.50
2018-12-31T02:17:34.884Z,2.50
2018-12-31T02:20:04.435Z,2.40
2018-12-31T02:22:33.575Z,2.30
2018-12-31T02:25:02.719Z,2.40
2018-12-31T02:27:31.864Z,2.40
2018-12-31T02:30:01.109Z,2.30
2018-12-31T02:32:30.316Z,2.40
2018-12-31T02:34:59.496Z,2.40
2018-12-31T02:37:28.634Z,2.50
2018-12-31T02:39:57.780Z,2.50
2018-12-31T02:42:26.956Z,2.50
2018-12-31T02:44:56.119Z,2.50
2018-12-31T02:47:25.235Z,2.40
2018-12-31T02:49:54.336Z,2.40
2018-12-31T02:52:23.544Z,2.50
2018-12-31T02:54:52.660Z,2.40
2018-12-31T02:57:21.791Z,2.40
2018-12-31T02:59:50.951Z,2.40
2018-12-31T03:02:20.091Z,2.40
2018-12-31T03:04:50.279Z,2.40
2018-12-31T03:07:19.412Z,2.40
2018-12-31T03:09:48.548Z,2.40
2018-12-31T03:12:17.714Z,2.40
2018-12-31T03:14:46.892Z,2.40
2018-12-31T03:17:16.011Z,2.40
2018-12-31T03:19:45.282Z,2.40
2018-12-31T03:22:14.533Z,2.40
2018-12-31T03:24:43.886Z,2.30
2018-12-31T03:27:13.186Z,2.40
2018-12-31T03:29:42.447Z,2.40
2018-12-31T03:32:11.712Z,2.40
2018-12-31T03:34:40.937Z,2.30
2018-12-31T03:37:10.138Z,2.40
2018-12-31T03:39:39.290Z,2.40
2018-12-31T03:42:08.453Z,2.40
2018-12-31T03:44:37.730Z,2.40
2018-12-31T03:47:06.999Z,2.40
2018-12-31T03:49:36.290Z,2.40
2018-12-31T03:52:05.539Z,2.40
2018-12-31T03:54:34.656Z,2.50
2018-12-31T03:57:03.786Z,2.50
2018-12-31T03:59:33.000Z,2.50
2018-12-31T04:02:02.131Z,2.50
2018-12-31T04:04:31.582Z,2.50
2018-12-31T04:07:00.825Z,2.50
2018-12-31T04:09:30.159Z,2.40
2018-12-31T04:11:59.464Z,2.70
2018-12-31T04:14:28.747Z,2.60
2018-12-31T04:16:58.054Z,2.60
2018-12-31T04:19:27.283Z,2.50
2018-12-31T04:21:56.691Z,2.60
2018-12-31T04:24:26.041Z,2.60
2018-12-31T04:26:55.417Z,2.50
2018-12-31T04:29:24.730Z,2.60
2018-12-31T04:31:53.933Z,2.50
2018-12-31T04:34:23.180Z,2.60
2018-12-31T04:36:52.525Z,2.50
2018-12-31T04:39:21.839Z,2.50
2018-12-31T04:41:51.107Z,2.60
2018-12-31T04:44:20.512Z,2.60
2018-12-31T04:46:49.734Z,2.60
2018-12-31T04:49:18.981Z,2.60
2018-12-31T04:51:48.273Z,2.60
2018-12-31T04:54:17.614Z,2.50
2018-12-31T04:56:46.824Z,2.60
2018-12-31T04:59:15.981Z,2.50
2018-12-31T05:01:45.105Z,2.60
2018-12-31T05:04:14.644Z,2.60
2018-12-31T05:06:43.847Z,2.50
2018-12-31T05:09:13.004Z,2.60
2018-12-31T05:11:42.167Z,2.60
2018-12-31T05:14:14.056Z,2.60
2018-12-31T05:16:43.212Z,2.60
2018-12-31T05:19:12.388Z,2.60
2018-12-31T05:21:41.591Z,2.60
2018-12-31T05:24:10.878Z,2.60
2018-12-31T05:26:40.139Z,2.60
2018-12-31T05:29:09.490Z,2.60
2018-12-31T05:31:38.773Z,2.60
2018-12-31T05:34:07.996Z,2.60
2018-12-31T05:36:37.226Z,2.60
2018-12-31T05:39:08.073Z,2.70
2018-12-31T05:41:37.313Z,2.70
2018-12-31T05:44:06.602Z,2.70
2018-12-31T05:46:35.910Z,2.70
2018-12-31T05:49:05.272Z,2.70
2018-12-31T05:51:34.680Z,2.70
2018-12-31T05:54:04.004Z,2.70
2018-12-31T05:56:33.287Z,2.70
2018-12-31T05:59:02.644Z,2.70
2018-12-31T06:01:31.953Z,2.70
2018-12-31T06:04:01.203Z,2.70
2018-12-31T06:06:30.492Z,2.70
2018-12-31T06:08:59.832Z,2.70
2018-12-31T06:11:29.097Z,2.70
2018-12-31T06:13:58.294Z,2.70
2018-12-31T06:16:27.594Z,2.70
2018-12-31T06:18:56.860Z,2.70
2018-12-31T06:21:26.098Z,2.70
2018-12-31T06:23:55.290Z,2.80
2018-12-31T06:26:24.597Z,2.70
2018-12-31T06:28:54.037Z,2.70
2018-12-31T06:31:23.312Z,3.00
2018-12-31T06:33:52.694Z,3.30
2018-12-31T06:36:21.901Z,3.10
2018-12-31T06:38:51.123Z,2.90
2018-12-31T06:41:20.254Z,3.00
2018-12-31T06:43:49.648Z,2.90
2018-12-31T06:46:18.938Z,2.90
2018-12-31T06:48:48.315Z,2.80
2018-12-31T06:51:17.448Z,2.80
2018-12-31T06:53:46.603Z,2.70
2018-12-31T06:56:15.805Z,2.70
2018-12-31T06:58:45.070Z,2.70
2018-12-31T07:01:14.375Z,2.70
2018-12-31T07:03:43.723Z,2.70
2018-12-31T07:06:12.961Z,2.70
2018-12-31T07:08:42.634Z,2.70
2018-12-31T07:11:12.079Z,2.60
2018-12-31T07:13:41.387Z,2.50
2018-12-31T07:16:10.671Z,2.60
2018-12-31T07:18:40.205Z,2.60
2018-12-31T07:21:09.624Z,2.70
2018-12-31T07:23:38.934Z,2.80
2018-12-31T07:26:08.404Z,2.70
2018-12-31T07:28:37.772Z,2.60
2018-12-31T07:31:07.071Z,2.40
2018-12-31T07:33:36.449Z,2.50
2018-12-31T07:36:05.825Z,2.50
2018-12-31T07:38:35.221Z,2.50
2018-12-31T07:41:04.499Z,2.40
2018-12-31T07:43:33.916Z,2.40
2018-12-31T07:46:03.351Z,2.40
2018-12-31T07:48:32.750Z,2.40
2018-12-31T07:51:02.083Z,2.40
2018-12-31T07:53:31.319Z,2.40
2018-12-31T07:56:00.701Z,2.50
2018-12-31T07:58:30.073Z,2.50
2018-12-31T08:00:59.714Z,2.50
2018-12-31T08:03:29.210Z,2.50
2018-12-31T08:05:58.450Z,2.50
2018-12-31T08:08:27.718Z,2.50
2018-12-31T08:10:57.784Z,2.50
2018-12-31T08:13:27.014Z,2.50
2018-12-31T08:15:56.210Z,2.50
2018-12-31T08:18:25.353Z,2.50
2018-12-31T08:20:54.596Z,2.50
2018-12-31T08:23:23.852Z,2.50
2018-12-31T08:25:53.039Z,2.50
2018-12-31T08:28:22.282Z,2.50
2018-12-31T08:30:52.444Z,2.50
2018-12-31T08:33:21.693Z,2.50
2018-12-31T08:35:51.060Z,2.50
2018-12-31T08:38:20.509Z,2.50
2018-12-31T08:40:49.992Z,2.50
2018-12-31T08:43:19.723Z,2.50
2018-12-31T08:45:49.189Z,2.50
2018-12-31T08:48:18.672Z,2.50
2018-12-31T08:50:49.315Z,2.60
2018-12-31T08:53:18.710Z,2.60
2018-12-31T08:55:48.093Z,2.60
2018-12-31T08:58:17.564Z,2.50
2018-12-31T09:00:47.000Z,2.50
2018-12-31T09:03:16.395Z,2.60
2018-12-31T09:05:45.855Z,2.50
2018-12-31T09:08:15.491Z,2.50
2018-12-31T09:10:45.024Z,2.50
2018-12-31T09:13:14.645Z,2.60
2018-12-31T09:15:45.158Z,2.60
2018-12-31T09:18:14.754Z,2.60
2018-12-31T09:20:44.377Z,2.60
2018-12-31T09:23:13.980Z,2.60
2018-12-31T09:25:43.811Z,2.50
2018-12-31T09:28:13.597Z,2.50
2018-12-31T09:30:45.005Z,2.60
2018-12-31T09:33:14.801Z,2.60
2018-12-31T09:35:44.474Z,2.60
2018-12-31T09:38:14.138Z,2.50
2018-12-31T09:40:43.792Z,2.60
2018-12-31T09:43:13.449Z,2.50
2018-12-31T09:45:43.226Z,2.60
2018-12-31T09:48:12.892Z,2.70
2018-12-31T09:50:42.837Z,2.60
2018-12-31T09:53:12.707Z,2.70
2018-12-31T09:55:42.991Z,2.70
2018-12-31T09:58:12.516Z,2.80
2018-12-31T10:00:41.988Z,2.80
2018-12-31T10:03:11.865Z,2.70
2018-12-31T10:05:41.464Z,2.80
2018-12-31T10:08:10.898Z,2.80
2018-12-31T10:10:40.436Z,2.80
2018-12-31T10:13:10.092Z,2.80
2018-12-31T10:15:39.610Z,2.80
2018-12-31T10:18:09.236Z,2.90
2018-12-31T10:20:38.705Z,2.90
2018-12-31T10:23:08.209Z,2.70
2018-12-31T10:25:37.752Z,2.70
2018-12-31T10:28:07.194Z,2.80
2018-12-31T10:30:36.812Z,2.90
2018-12-31T10:33:06.329Z,2.80
2018-12-31T10:35:35.874Z,2.80
2018-12-31T10:38:05.643Z,2.60
2018-12-31T10:40:38.075Z,2.70
2018-12-31T10:43:07.859Z,2.70
2018-12-31T10:45:38.016Z,2.80
2018-12-31T10:48:33.402Z,2.70
2018-12-31T10:51:03.388Z,2.80
2018-12-31T10:53:33.130Z,2.80
2018-12-31T10:56:02.656Z,2.80
2018-12-31T10:58:32.288Z,2.90
2018-12-31T11:01:02.055Z,2.90
2018-12-31T11:03:31.662Z,3.00
2018-12-31T11:06:01.615Z,3.00
2018-12-31T11:08:31.327Z,3.00
2018-12-31T11:11:00.933Z,3.00
2018-12-31T11:13:30.808Z,3.00
2018-12-31T11:16:00.610Z,3.00
2018-12-31T11:18:30.155Z,3.00
2018-12-31T11:20:59.835Z,3.00
2018-12-31T11:23:29.310Z,3.10
2018-12-31T11:25:58.726Z,3.10
2018-12-31T11:28:29.785Z,3.10
2018-12-31T11:30:59.156Z,3.10
2018-12-31T11:33:28.536Z,3.20
2018-12-31T11:35:58.041Z,3.20
2018-12-31T11:38:27.511Z,3.20
2018-12-31T11:40:57.128Z,3.20
2018-12-31T11:43:26.581Z,3.30
2018-12-31T11:45:56.038Z,3.30
2018-12-31T11:48:25.730Z,3.40
2018-12-31T11:50:55.219Z,3.30
2018-12-31T11:53:24.736Z,3.30
2018-12-31T11:55:54.291Z,3.30
2018-12-31T11:58:23.954Z,3.30
2018-12-31T12:00:53.525Z,3.40
2018-12-31T12:03:22.905Z,3.40
2018-12-31T12:05:52.422Z,3.40
2018-12-31T12:08:21.968Z,3.40
2018-12-31T12:10:51.679Z,3.30
2018-12-31T12:13:21.047Z,3.40
2018-12-31T12:15:50.606Z,3.40
2018-12-31T12:18:19.990Z,3.40
2018-12-31T12:20:49.366Z,3.40
2018-12-31T12:23:18.795Z,3.40
2018-12-31T12:25:48.377Z,3.40
2018-12-31T12:28:17.853Z,3.40
2018-12-31T12:30:47.374Z,3.50
2018-12-31T12:33:16.661Z,3.30
2018-12-31T12:35:45.888Z,3.30
2018-12-31T12:38:15.153Z,3.40
2018-12-31T12:40:44.486Z,3.30
2018-12-31T12:43:13.848Z,3.30
2018-12-31T12:45:43.084Z,3.40
2018-12-31T12:48:12.377Z,3.20
2018-12-31T12:50:42.039Z,3.20
2018-12-31T12:53:11.363Z,3.30
2018-12-31T12:55:40.584Z,3.30
2018-12-31T12:58:09.821Z,3.30
2018-12-31T13:00:39.041Z,3.30
2018-12-31T13:03:08.710Z,3.40
2018-12-31T13:05:38.069Z,3.30
2018-12-31T13:08:07.283Z,3.30
2018-12-31T13:10:36.490Z,3.30
2018-12-31T13:13:06.031Z,3.40
2018-12-31T13:15:35.580Z,3.50
2018-12-31T13:18:05.040Z,3.50
2018-12-31T13:20:34.671Z,3.50
2018-12-31T13:23:04.136Z,3.60
2018-12-31T13:25:33.620Z,3.60
2018-12-31T13:28:03.001Z,3.60
2018-12-31T13:30:33.360Z,3.60
2018-12-31T13:33:02.966Z,3.60
2018-12-31T13:35:32.528Z,3.60
2018-12-31T13:38:01.924Z,3.70
2018-12-31T13:40:31.486Z,3.80
2018-12-31T13:43:01.088Z,3.80
2018-12-31T13:45:33.656Z,3.90
2018-12-31T13:48:03.197Z,3.90
2018-12-31T13:50:33.051Z,3.90
2018-12-31T13:53:02.718Z,4.00
2018-12-31T13:55:32.309Z,4.00
2018-12-31T13:58:01.735Z,4.00
2018-12-31T14:00:31.131Z,4.00
2018-12-31T14:03:00.719Z,4.00
2018-12-31T14:05:30.200Z,4.10
2018-12-31T14:07:59.851Z,4.10
2018-12-31T14:10:32.503Z,4.10
2018-12-31T14:13:02.548Z,4.10
2018-12-31T14:15:32.006Z,4.10
2018-12-31T14:18:01.456Z,4.10
2018-12-31T14:20:31.602Z,4.20
2018-12-31T14:23:10.397Z,4.20
2018-12-31T14:25:39.835Z,4.20
2018-12-31T14:28:09.409Z,4.20
2018-12-31T14:30:38.936Z,4.20
2018-12-31T14:33:08.465Z,4.20
2018-12-31T14:35:45.564Z,4.20
2018-12-31T14:38:09.320Z,4.20
2018-12-31T14:40:38.896Z,4.20
2018-12-31T14:43:08.385Z,4.10
2018-12-31T14:45:37.891Z,4.20
2018-12-31T14:48:07.306Z,4.20
2018-12-31T14:50:36.743Z,4.20
2018-12-31T14:53:06.304Z,4.20
2018-12-31T14:55:35.812Z,4.20
2018-12-31T14:58:05.472Z,4.20
2018-12-31T15:00:35.023Z,4.20
2018-12-31T15:03:04.674Z,4.30
2018-12-31T15:05:34.308Z,4.30
2018-12-31T15:08:25.004Z,4.30
2018-12-31T15:10:54.359Z,4.30
2018-12-31T15:13:23.746Z,4.30
2018-12-31T15:15:53.205Z,4.30
2018-12-31T15:18:22.961Z,4.20
2018-12-31T15:20:52.487Z,4.30
2018-12-31T15:23:21.883Z,4.20
2018-12-31T15:25:51.271Z,4.30
2018-12-31T15:28:20.710Z,4.30
2018-12-31T15:30:50.174Z,4.30
2018-12-31T15:33:19.525Z,4.30
2018-12-31T15:35:48.825Z,4.30
2018-12-31T15:38:18.063Z,4.30
2018-12-31T15:40:47.324Z,4.30
2018-12-31T15:43:16.554Z,4.30
2018-12-31T15:45:45.785Z,4.30
2018-12-31T15:48:14.884Z,4.30
2018-12-31T15:50:44.101Z,4.30
2018-12-31T15:53:13.317Z,4.30
2018-12-31T15:55:42.596Z,4.30
2018-12-31T15:58:11.794Z,4.20
2018-12-31T16:00:41.035Z,4.20
2018-12-31T16:03:10.167Z,4.20
2018-12-31T16:05:39.382Z,4.30
2018-12-31T16:08:08.556Z,4.30
2018-12-31T16:10:37.761Z,4.30
2018-12-31T16:13:06.940Z,4.30
2018-12-31T16:15:36.154Z,4.30
2018-12-31T16:18:05.863Z,4.30
2018-12-31T16:20:35.296Z,4.30
2018-12-31T16:23:04.629Z,4.30
2018-12-31T16:25:33.959Z,4.20
2018-12-31T16:28:03.183Z,4.20
2018-12-31T16:30:32.449Z,4.20
2018-12-31T16:33:01.930Z,4.20
2018-12-31T16:35:31.177Z,4.20
2018-12-31T16:38:00.368Z,4.20
2018-12-31T16:40:29.597Z,4.20
2018-12-31T16:42:58.805Z,4.20
2018-12-31T16:45:28.258Z,4.20
2018-12-31T16:47:57.465Z,4.10
2018-12-31T16:50:26.732Z,4.20
2018-12-31T16:52:58.760Z,4.20
2018-12-31T16:55:27.997Z,4.20
2018-12-31T16:57:57.744Z,4.20
2018-12-31T17:00:27.431Z,4.20
2018-12-31T17:02:56.730Z,4.20
2018-12-31T17:05:25.984Z,4.20
2018-12-31T17:07:55.246Z,4.20
2018-12-31T17:10:24.885Z,4.20
2018-12-31T17:12:54.192Z,4.30
2018-12-31T17:15:23.475Z,4.20
2018-12-31T17:17:52.741Z,4.30
2018-12-31T17:20:22.016Z,4.30
2018-12-31T17:22:51.748Z,4.30
2018-12-31T17:25:20.984Z,4.20
2018-12-31T17:27:50.453Z,4.30
2018-12-31T17:30:19.651Z,4.20
2018-12-31T17:32:48.960Z,4.30
2018-12-31T17:35:18.500Z,4.30
2018-12-31T17:37:47.759Z,4.30
2018-12-31T17:40:17.027Z,4.30
2018-12-31T17:42:46.830Z,4.30
2018-12-31T17:45:23.067Z,4.30
2018-12-31T17:47:47.299Z,4.30
2018-12-31T17:50:16.598Z,4.30
2018-12-31T17:52:46.033Z,4.30
2018-12-31T17:55:15.538Z,4.30
2018-12-31T17:57:44.887Z,4.30
2018-12-31T18:00:14.310Z,4.30
2018-12-31T18:02:43.727Z,4.30
2018-12-31T18:05:13.313Z,4.40
2018-12-31T18:07:42.634Z,4.40
2018-12-31T18:10:11.938Z,4.40
2018-12-31T18:12:41.275Z,4.30
2018-12-31T18:15:10.832Z,4.30
2018-12-31T18:17:40.125Z,4.30
2018-12-31T18:20:10.427Z,4.30
2018-12-31T18:22:39.832Z,4.30
2018-12-31T18:25:09.247Z,4.30
2018-12-31T18:27:38.612Z,4.30
2018-12-31T18:30:09.733Z,4.30
2018-12-31T18:32:39.052Z,4.30
2018-12-31T18:35:08.357Z,4.30
2018-12-31T18:37:41.740Z,4.30
2018-12-31T18:40:08.825Z,4.30
2018-12-31T18:42:38.091Z,4.30
2018-12-31T18:45:07.293Z,4.30
2018-12-31T18:47:36.948Z,4.40
2018-12-31T18:50:06.548Z,4.40
2018-12-31T18:52:35.822Z,4.30
2018-12-31T18:55:05.053Z,4.20
2018-12-31T18:57:34.297Z,4.20
2018-12-31T19:00:03.959Z,4.20
2018-12-31T19:02:33.188Z,4.30
2018-12-31T19:05:02.505Z,4.20
2018-12-31T19:07:31.744Z,4.30
2018-12-31T19:10:01.155Z,4.30
2018-12-31T19:12:30.907Z,4.30
2018-12-31T19:15:00.311Z,4.30
2018-12-31T19:17:29.438Z,4.30
2018-12-31T19:19:58.789Z,4.30
2018-12-31T19:22:28.069Z,4.30
2018-12-31T19:24:57.885Z,4.40
2018-12-31T19:27:27.305Z,4.30
2018-12-31T19:29:56.624Z,4.30
2018-12-31T19:32:26.075Z,4.40
2018-12-31T19:34:55.382Z,4.40
2018-12-31T19:37:25.046Z,4.40
2018-12-31T19:39:54.476Z,4.40
2018-12-31T19:42:23.881Z,4.30
2018-12-31T19:44:53.131Z,4.40
2018-12-31T19:47:22.563Z,4.40
2018-12-31T19:49:52.234Z,4.40
2018-12-31T19:52:21.519Z,4.40
2018-12-31T19:54:50.812Z,4.40
2018-12-31T19:57:20.064Z,4.40
2018-12-31T19:59:52.424Z,4.50
2018-12-31T20:02:22.070Z,4.50
2018-12-31T20:04:51.341Z,4.50
2018-12-31T20:07:20.673Z,4.50
2018-12-31T20:09:49.987Z,4.50
2018-12-31T20:12:19.170Z,4.50
2018-12-31T20:14:48.960Z,4.50
2018-12-31T20:17:18.414Z,4.50
2018-12-31T20:19:47.659Z,4.50
2018-12-31T20:22:17.051Z,4.50
2018-12-31T20:24:46.355Z,4.50
2018-12-31T20:27:15.989Z,4.80
2018-12-31T20:29:45.328Z,4.80
2018-12-31T20:32:14.731Z,4.80
2018-12-31T20:34:44.125Z,4.70
2018-12-31T20:37:13.364Z,4.60
2018-12-31T20:39:42.732Z,4.60
2018-12-31T20:42:12.008Z,4.60
2018-12-31T20:44:41.394Z,4.60
2018-12-31T20:47:10.708Z,4.60
2018-12-31T20:49:40.079Z,4.60
2018-12-31T20:52:10.702Z,4.60
2018-12-31T20:54:40.414Z,4.60
2018-12-31T20:57:09.672Z,4.60
2018-12-31T20:59:38.974Z,4.60
2018-12-31T21:02:08.275Z,4.50
2018-12-31T21:04:37.717Z,4.50
2018-12-31T21:07:07.326Z,4.50
2018-12-31T21:09:36.661Z,4.50
2018-12-31T21:12:05.853Z,4.50
2018-12-31T21:14:35.151Z,4.50
2018-12-31T21:17:04.539Z,4.50
2018-12-31T21:19:34.322Z,4.40
2018-12-31T21:22:03.624Z,4.50
2018-12-31T21:24:32.849Z,4.40
2018-12-31T21:27:02.081Z,4.40
2018-12-31T21:29:31.334Z,4.40
2018-12-31T21:32:00.936Z,4.40
2018-12-31T21:34:30.257Z,4.40
2018-12-31T21:36:59.521Z,4.40
2018-12-31T21:39:28.827Z,4.40
2018-12-31T21:41:58.017Z,4.40
2018-12-31T21:44:27.418Z,4.40
2018-12-31T21:46:56.679Z,4.40
2018-12-31T21:49:25.956Z,4.30
2018-12-31T21:51:55.373Z,4.30
2018-12-31T21:54:24.645Z,4.20
2018-12-31T21:56:53.844Z,4.20
2018-12-31T21:59:23.033Z,4.20
2018-12-31T22:01:52.220Z,4.20
2018-12-31T22:04:21.497Z,4.20
2018-12-31T22:06:50.723Z,4.20
2018-12-31T22:09:20.142Z,4.10
2018-12-31T22:11:49.317Z,4.10
2018-12-31T22:14:18.509Z,4.10
2018-12-31T22:16:47.678Z,4.10
2018-12-31T22:19:17.137Z,4.10
2018-12-31T22:21:46.581Z,4.10
2018-12-31T22:24:15.930Z,4.00
2018-12-31T22:26:45.250Z,4.00
2018-12-31T22:29:14.651Z,4.00
2018-12-31T22:31:44.016Z,4.00
2018-12-31T22:34:13.550Z,3.90
2018-12-31T22:36:42.785Z,3.90
2018-12-31T22:39:12.019Z,3.80
2018-12-31T22:41:41.406Z,3.80
2018-12-31T22:44:10.795Z,3.80
2018-12-31T22:46:40.187Z,3.70
2018-12-31T22:49:09.513Z,3.70
2018-12-31T22:51:38.956Z,3.70
2018-12-31T22:54:08.235Z,3.70
2018-12-31T22:56:37.566Z,3.70
2018-12-31T22:59:07.048Z,3.70
2018-12-31T23:01:36.488Z,3.60
2018-12-31T23:04:05.848Z,3.60
2018-12-31T23:06:35.981Z,3.60
2018-12-31T23:09:07.789Z,3.60
2018-12-31T23:11:37.363Z,3.60
2018-12-31T23:14:06.937Z,3.60
2018-12-31T23:16:36.268Z,3.50
2018-12-31T23:19:06.152Z,3.50
2018-12-31T23:21:35.646Z,3.40
2018-12-31T23:24:05.448Z,3.50
2018-12-31T23:26:35.025Z,3.50
2018-12-31T23:29:04.695Z,3.40
2018-12-31T23:31:33.976Z,3.40
2018-12-31T23:34:03.454Z,3.40
2018-12-31T23:36:32.744Z,3.40
2018-12-31T23:39:05.384Z,3.30
2018-12-31T23:41:33.250Z,3.30
2018-12-31T23:44:02.640Z,3.30
2018-12-31T23:46:32.166Z,3.20
2018-12-31T23:49:02.121Z,3.10
2018-12-31T23:51:33.064Z,3.10
2018-12-31T23:54:05.936Z,3.10
2018-12-31T23:56:35.739Z,3.10
2018-12-31T23:59:05.311Z,3.00
